KCHS/CHS METAR and TAF weather

Enter ICAO airport designator
Station Type Date Time Source
KCHS METAR 2020/04/05 05:56 UTC NOAA

KCHS 050556Z 00000KT 10SM FEW250 14/11 A2998 RMK AO2 SLP152 T01440111 10172 20133 58007


Station Type Date Time Source
KCHS Decoded METAR 2020/04/05 05:56 UTC NOAA

CHARLESTON INT'L AIRPORT, SC, United States (KCHS) 32-54N 080-02W 13M
Apr 05, 2020 - 01:56 AM EDT / 2020.04.05 0556 UTC
Wind: Calm:0
Visibility: 10 mile(s):0
Sky conditions: mostly clear
Temperature: 57.9 F (14.4 C)
Dew Point: 52.0 F (11.1 C)
Relative Humidity: 80%
Pressure (altimeter): 29.98 in. Hg (1015 hPa)
Pressure tendency: 0.02 inches (0.7 hPa) lower than three hours ago
ob: KCHS 050556Z 00000KT 10SM FEW250 14/11 A2998 RMK AO2 SLP152 T01440111 10172 20133 58007
cycle: 6

Station Type Date Time Source
KCHS TAF 2020/04/05 06:37 UTC NOAA

TAF KCHS 050535Z 0506/0606 10004KT P6SM BKN250
FM051400 11009KT P6SM BKN150
FM052300 12005KT P6SM SCT080

Example: see airport list